createdAt,value
2019-04-20T00:00:40.324Z,10.77
2019-04-20T00:03:05.799Z,9.00
2019-04-20T00:05:35.017Z,9.60
2019-04-20T00:08:08.873Z,10.50
2019-04-20T00:10:43.308Z,9.50
2019-04-20T00:13:16.632Z,10.88
2019-04-20T00:15:34.600Z,11.80
2019-04-20T00:18:06.262Z,13.40
2019-04-20T00:20:35.896Z,13.43
2019-04-20T00:23:05.817Z,13.32
2019-04-20T00:26:02.696Z,11.87
2019-04-20T00:28:39.786Z,11.90
2019-04-20T00:31:09.743Z,13.07
2019-04-20T00:33:37.077Z,10.80
2019-04-20T00:35:52.838Z,11.23
2019-04-20T00:38:22.738Z,11.00
2019-04-20T00:40:58.266Z,13.33
2019-04-20T00:43:28.310Z,10.70
2019-04-20T00:45:58.583Z,10.82
2019-04-20T00:48:31.552Z,10.70
2019-04-20T00:51:06.950Z,15.67
2019-04-20T00:53:30.300Z,10.83
2019-04-20T00:55:51.021Z,11.43
2019-04-20T00:58:27.343Z,11.73
2019-04-20T01:01:12.786Z,13.77
2019-04-20T01:03:34.089Z,16.03
2019-04-20T01:06:24.736Z,11.78
2019-04-20T01:08:38.065Z,11.97
2019-04-20T01:11:06.362Z,12.58
2019-04-20T01:13:42.120Z,15.63
2019-04-20T01:16:08.733Z,12.20
2019-04-20T01:18:34.628Z,13.60
2019-04-20T01:21:06.721Z,11.73
2019-04-20T01:23:40.192Z,12.47
2019-04-20T01:26:08.828Z,12.00
2019-04-20T01:28:46.426Z,11.33
2019-04-20T01:31:14.685Z,12.90
2019-04-20T01:33:42.659Z,12.47
2019-04-20T01:36:19.598Z,13.90
2019-04-20T01:38:49.791Z,11.90
2019-04-20T01:41:03.382Z,12.75
2019-04-20T01:43:31.639Z,14.90
2019-04-20T01:46:07.922Z,12.80
2019-04-20T01:48:34.009Z,13.40
2019-04-20T01:51:07.268Z,14.83
2019-04-20T01:53:50.380Z,14.90
2019-04-20T01:56:24.388Z,14.93
2019-04-20T01:58:58.191Z,13.85
2019-04-20T02:01:31.131Z,15.03
2019-04-20T02:04:01.892Z,14.30
2019-04-20T02:06:41.530Z,15.57
2019-04-20T02:09:06.777Z,15.00
2019-04-20T02:11:37.631Z,15.65
2019-04-20T02:14:06.770Z,14.35
2019-04-20T02:16:39.292Z,13.38
2019-04-20T02:19:18.679Z,15.13
2019-04-20T02:21:47.692Z,23.00
2019-04-20T02:24:05.953Z,12.45
2019-04-20T02:26:32.610Z,13.23
2019-04-20T02:29:24.590Z,13.60
2019-04-20T02:34:39.754Z,13.40
2019-04-20T02:37:17.320Z,12.23
2019-04-20T02:39:46.723Z,12.33
2019-04-20T02:49:41.989Z,17.10
2019-04-20T02:52:25.038Z,15.37
2019-04-20T02:54:46.434Z,14.40
2019-04-20T02:57:15.086Z,14.63
2019-04-20T03:02:01.517Z,15.63
2019-04-20T03:04:20.356Z,14.75
2019-04-20T03:06:54.998Z,13.28
2019-04-20T03:09:32.490Z,15.57
2019-04-20T03:12:04.950Z,14.47
2019-04-20T03:14:29.282Z,18.60
2019-04-20T03:17:08.595Z,15.53
2019-04-20T03:19:25.052Z,17.50
2019-04-20T03:22:03.859Z,20.00
2019-04-20T03:24:38.877Z,14.60
2019-04-20T03:26:59.566Z,16.48
2019-04-20T03:29:38.362Z,14.53
2019-04-20T03:32:44.906Z,14.78
2019-04-20T03:35:00.571Z,17.00
2019-04-20T03:37:25.374Z,15.43
2019-04-20T03:39:42.343Z,20.93
2019-04-20T03:41:56.656Z,15.78
2019-04-20T03:44:26.460Z,18.33
2019-04-20T03:47:00.867Z,16.73
2019-04-20T03:49:49.454Z,16.07
2019-04-20T03:52:27.768Z,19.13
2019-04-20T03:55:07.600Z,19.20
2019-04-20T03:57:58.746Z,19.20
2019-04-20T04:00:36.472Z,18.00
2019-04-20T04:03:31.915Z,19.57
2019-04-20T04:05:48.148Z,21.13
2019-04-20T04:08:12.185Z,22.10
2019-04-20T04:10:50.531Z,18.07
2019-04-20T04:13:12.962Z,16.73
2019-04-20T04:15:48.786Z,17.23
2019-04-20T04:18:21.871Z,24.70
2019-04-20T04:20:53.258Z,18.45
2019-04-20T04:23:35.670Z,18.90
2019-04-20T04:26:05.824Z,17.20
2019-04-20T04:28:31.084Z,19.52
2019-04-20T04:31:04.163Z,17.07
2019-04-20T04:36:01.041Z,19.67
2019-04-20T04:38:39.615Z,23.37
2019-04-20T04:43:36.310Z,21.60
2019-04-20T04:45:44.891Z,22.02
2019-04-20T04:48:21.288Z,19.33
2019-04-20T04:50:52.196Z,21.73
2019-04-20T04:53:28.511Z,18.17
2019-04-20T04:55:52.398Z,18.93
2019-04-20T04:58:13.155Z,20.60
2019-04-20T05:00:42.479Z,19.50
2019-04-20T05:03:26.691Z,19.20
2019-04-20T05:06:07.211Z,21.30
2019-04-20T05:08:25.344Z,21.33
2019-04-20T05:10:47.900Z,17.55
2019-04-20T05:13:16.206Z,18.15
2019-04-20T05:15:59.301Z,16.85
2019-04-20T05:18:41.782Z,16.27
2019-04-20T05:21:05.907Z,15.33
2019-04-20T05:23:32.004Z,17.90
2019-04-20T05:26:22.277Z,15.73
2019-04-20T05:28:40.598Z,15.00
2019-04-20T05:31:03.055Z,15.27
2019-04-20T05:33:48.892Z,14.30
2019-04-20T05:36:18.521Z,14.35
2019-04-20T05:39:19.518Z,14.80
2019-04-20T05:41:16.911Z,13.33
2019-04-20T05:43:59.717Z,14.03
2019-04-20T05:46:33.594Z,15.43
2019-04-20T05:49:03.299Z,15.63
2019-04-20T05:51:36.566Z,14.33
2019-04-20T05:54:05.625Z,13.28
2019-04-20T05:56:35.717Z,16.93
2019-04-20T05:58:59.525Z,12.70
2019-04-20T06:01:34.619Z,15.03
2019-04-20T06:04:03.047Z,14.13
2019-04-20T06:06:33.139Z,11.50
2019-04-20T06:11:34.699Z,12.10
2019-04-20T06:13:59.016Z,9.63
2019-04-20T06:16:46.842Z,10.82
2019-04-20T06:19:24.362Z,10.00
2019-04-20T06:21:57.654Z,11.17
2019-04-20T06:24:26.741Z,11.70
2019-04-20T06:29:20.647Z,11.07
2019-04-20T06:31:54.160Z,9.60
2019-04-20T06:36:57.287Z,9.50
2019-04-20T06:47:08.913Z,9.57
2019-04-20T06:49:35.436Z,8.18
2019-04-20T06:52:12.629Z,8.33
2019-04-20T06:54:35.860Z,8.30
2019-04-20T06:57:07.243Z,10.20
2019-04-20T06:59:39.045Z,8.20
2019-04-20T07:02:11.863Z,7.90
2019-04-20T07:04:46.085Z,8.50
2019-04-20T07:07:10.166Z,8.43
2019-04-20T07:12:02.966Z,7.87
2019-04-20T07:14:27.588Z,7.53
2019-04-20T07:17:16.195Z,7.33
2019-04-20T07:19:47.473Z,7.30
2019-04-20T07:22:32.231Z,8.67
2019-04-20T07:24:56.783Z,7.60
2019-04-20T07:27:24.389Z,6.70
2019-04-20T07:30:07.897Z,6.93
2019-04-20T07:32:20.374Z,8.37
2019-04-20T07:34:55.654Z,7.40
2019-04-20T07:37:46.692Z,6.25
2019-04-20T07:39:58.876Z,6.23
2019-04-20T07:42:29.353Z,6.43
2019-04-20T07:45:04.697Z,6.30
2019-04-20T07:47:32.854Z,6.78
2019-04-20T07:49:49.769Z,5.30
2019-04-20T07:52:04.026Z,5.80
2019-04-20T07:55:12.495Z,5.67
2019-04-20T07:57:19.497Z,4.90
2019-04-20T07:59:53.327Z,6.35
2019-04-20T08:02:32.005Z,5.12
2019-04-20T08:04:51.285Z,4.83
2019-04-20T08:07:09.140Z,9.77
2019-04-20T08:09:44.161Z,5.28
2019-04-20T08:12:35.575Z,6.17
2019-04-20T08:15:04.753Z,5.37
2019-04-20T08:17:44.290Z,5.60
2019-04-20T08:19:59.516Z,6.67
2019-04-20T08:22:27.019Z,6.40
2019-04-20T08:24:52.761Z,7.83
2019-04-20T08:27:16.315Z,6.07
2019-04-20T08:30:03.630Z,9.87
2019-04-20T08:32:38.943Z,6.97
2019-04-20T08:35:15.389Z,7.20
2019-04-20T08:37:40.103Z,6.13
2019-04-20T08:40:12.768Z,7.00
2019-04-20T08:42:51.226Z,9.05
2019-04-20T08:45:31.711Z,6.97
2019-04-20T08:47:51.848Z,5.63
2019-04-20T08:50:27.204Z,6.77
2019-04-20T08:55:17.001Z,6.10
2019-04-20T08:57:26.908Z,5.30
2019-04-20T08:59:56.050Z,5.67
2019-04-20T09:02:25.822Z,5.63
2019-04-20T09:05:01.060Z,5.55
2019-04-20T09:07:28.319Z,5.30
2019-04-20T09:10:16.379Z,7.17
2019-04-20T09:12:42.149Z,5.13
2019-04-20T09:14:55.187Z,4.93
2019-04-20T09:17:36.629Z,5.63
2019-04-20T09:20:06.052Z,4.85
2019-04-20T09:22:46.653Z,12.47
2019-04-20T09:25:42.528Z,4.50
2019-04-20T09:27:46.774Z,5.23
2019-04-20T09:30:25.718Z,6.20
2019-04-20T09:33:14.613Z,6.70
2019-04-20T09:35:44.447Z,6.57
2019-04-20T09:38:11.578Z,4.45
2019-04-20T09:40:58.323Z,4.63
2019-04-20T09:42:57.740Z,6.53
2019-04-20T09:45:37.080Z,4.92
2019-04-20T09:47:58.843Z,4.37
2019-04-20T09:50:43.761Z,5.13
2019-04-20T09:53:14.202Z,6.70
2019-04-20T09:55:37.805Z,4.97
2019-04-20T09:58:12.348Z,4.58
2019-04-20T10:00:56.701Z,4.30
2019-04-20T10:03:12.932Z,4.43
2019-04-20T10:05:41.684Z,3.90
2019-04-20T10:08:11.371Z,5.55
2019-04-20T10:10:43.508Z,7.97
2019-04-20T10:13:11.149Z,4.85
2019-04-20T10:15:39.710Z,5.58
2019-04-20T10:18:08.043Z,5.00
2019-04-20T10:20:38.769Z,6.80
2019-04-20T10:23:06.800Z,3.90
2019-04-20T10:25:36.332Z,5.05
2019-04-20T10:28:05.522Z,4.70
2019-04-20T10:30:34.684Z,4.60
2019-04-20T10:33:03.587Z,4.90
2019-04-20T10:35:31.892Z,3.93
2019-04-20T10:38:05.421Z,4.10
2019-04-20T10:40:46.147Z,12.47
2019-04-20T10:43:04.629Z,4.33
2019-04-20T10:45:34.930Z,6.47
2019-04-20T10:48:03.440Z,4.12
2019-04-20T10:50:32.325Z,4.70
2019-04-20T10:53:01.620Z,3.60
2019-04-20T10:55:31.326Z,3.87
2019-04-20T10:57:59.788Z,4.20
2019-04-20T11:00:44.019Z,4.93
2019-04-20T11:03:13.589Z,6.70
2019-04-20T11:05:42.628Z,3.57
2019-04-20T11:08:12.767Z,4.23
2019-04-20T11:10:55.674Z,3.20
2019-04-20T11:13:12.187Z,3.90
2019-04-20T11:15:40.629Z,4.20
2019-04-20T11:18:09.230Z,3.75
2019-04-20T11:20:37.527Z,5.58
2019-04-20T11:23:06.627Z,3.15
2019-04-20T11:25:34.959Z,4.12
2019-04-20T11:28:04.017Z,4.33
2019-04-20T11:30:32.368Z,4.08
2019-04-20T11:33:00.631Z,3.70
2019-04-20T11:35:34.361Z,3.27
2019-04-20T11:37:58.888Z,8.10
2019-04-20T11:40:27.149Z,7.53
2019-04-20T11:42:55.496Z,3.75
2019-04-20T11:45:24.767Z,3.33
2019-04-20T11:47:53.756Z,3.10
2019-04-20T11:50:22.126Z,7.50
2019-04-20T11:52:51.461Z,3.73
2019-04-20T11:55:20.184Z,3.30
2019-04-20T11:57:49.428Z,3.30
2019-04-20T12:00:22.078Z,3.70
2019-04-20T12:03:09.817Z,2.67
2019-04-20T12:05:39.673Z,3.37
2019-04-20T12:08:07.050Z,3.93
2019-04-20T12:10:35.400Z,3.87
2019-04-20T12:13:03.822Z,4.30
2019-04-20T12:15:35.031Z,3.07
2019-04-20T12:18:02.170Z,3.10
2019-04-20T12:20:30.437Z,3.00
2019-04-20T12:23:02.198Z,3.70
2019-04-20T12:25:33.325Z,3.30
2019-04-20T12:28:02.346Z,3.70
2019-04-20T12:30:30.687Z,3.00
2019-04-20T12:33:01.902Z,3.40
2019-04-20T12:35:29.976Z,3.37
2019-04-20T12:37:58.934Z,3.10
2019-04-20T12:40:28.130Z,4.35
2019-04-20T12:42:57.218Z,3.47
2019-04-20T12:45:25.972Z,3.05
2019-04-20T12:47:55.482Z,3.77
2019-04-20T12:50:23.918Z,3.90
2019-04-20T12:52:52.536Z,3.97
2019-04-20T12:55:20.939Z,3.73
2019-04-20T12:57:50.308Z,4.87
2019-04-20T13:00:19.523Z,4.10
2019-04-20T13:02:47.867Z,4.20
2019-04-20T13:05:17.580Z,4.00
2019-04-20T13:07:49.717Z,3.80
2019-04-20T13:10:16.057Z,4.10
2019-04-20T13:12:58.462Z,4.63
2019-04-20T13:15:32.146Z,7.30
2019-04-20T13:18:01.299Z,11.93
2019-04-20T13:20:30.015Z,5.60
2019-04-20T13:22:59.998Z,4.50
2019-04-20T13:25:28.793Z,6.40
2019-04-20T13:27:57.032Z,3.90
2019-04-20T13:30:28.086Z,3.60
2019-04-20T13:32:57.337Z,2.93
2019-04-20T13:35:26.079Z,2.23
2019-04-20T13:37:54.481Z,2.90
2019-04-20T13:40:23.853Z,2.10
2019-04-20T13:42:52.229Z,2.10
2019-04-20T13:45:21.253Z,1.97
2019-04-20T13:47:50.841Z,1.87
2019-04-20T13:50:20.045Z,3.30
2019-04-20T13:52:48.910Z,2.00
2019-04-20T13:55:17.313Z,2.10
2019-04-20T13:57:50.165Z,3.00
2019-04-20T14:00:40.942Z,2.00
2019-04-20T14:03:11.347Z,2.40
2019-04-20T14:05:40.507Z,2.33
2019-04-20T14:08:09.752Z,1.50
2019-04-20T14:10:39.586Z,2.43
2019-04-20T14:13:13.598Z,2.30
2019-04-20T14:15:37.913Z,1.67
2019-04-20T14:18:06.933Z,2.00
2019-04-20T14:20:36.217Z,2.33
2019-04-20T14:23:05.258Z,3.13
2019-04-20T14:25:33.613Z,2.47
2019-04-20T14:28:02.817Z,2.43
2019-04-20T14:30:31.057Z,2.37
2019-04-20T14:32:59.398Z,2.30
2019-04-20T14:35:29.101Z,2.20
2019-04-20T14:37:57.633Z,2.47
2019-04-20T14:40:26.196Z,2.43
2019-04-20T14:42:56.762Z,2.40
2019-04-20T14:45:24.773Z,2.73
2019-04-20T14:47:54.019Z,2.07
2019-04-20T14:50:23.455Z,2.50
2019-04-20T14:52:51.789Z,2.03
2019-04-20T14:55:21.155Z,1.90
2019-04-20T14:57:50.108Z,2.53
2019-04-20T15:00:53.082Z,2.70
2019-04-20T15:03:28.322Z,2.52
2019-04-20T15:05:59.977Z,3.93
2019-04-20T15:08:28.395Z,3.07
2019-04-20T15:10:57.097Z,3.07
2019-04-20T15:13:26.662Z,2.67
2019-04-20T15:15:55.017Z,3.70
2019-04-20T15:18:33.972Z,2.40
2019-04-20T15:21:09.610Z,2.73
2019-04-20T15:23:37.878Z,3.98
2019-04-20T15:26:06.600Z,3.33
2019-04-20T15:28:34.884Z,3.97
2019-04-20T15:31:03.166Z,8.27
2019-04-20T15:33:32.734Z,6.85
2019-04-20T15:36:02.191Z,6.10
2019-04-20T15:38:31.347Z,6.67
2019-04-20T15:40:59.750Z,6.83
2019-04-20T15:43:28.174Z,6.62
2019-04-20T15:45:57.331Z,8.43
2019-04-20T15:48:26.031Z,5.87
2019-04-20T15:50:54.349Z,4.95
2019-04-20T15:53:23.897Z,5.00
2019-04-20T15:55:52.491Z,5.30
2019-04-20T15:58:20.756Z,5.40
2019-04-20T16:00:50.892Z,4.40
2019-04-20T16:03:27.545Z,4.97
2019-04-20T16:05:58.812Z,4.93
2019-04-20T16:08:32.396Z,4.55
2019-04-20T16:11:04.646Z,4.62
2019-04-20T16:13:37.545Z,5.00
2019-04-20T16:16:03.530Z,3.20
2019-04-20T16:18:32.859Z,3.83
2019-04-20T16:21:07.928Z,5.40
2019-04-20T16:23:32.879Z,4.43
2019-04-20T16:26:05.950Z,3.90
2019-04-20T16:28:35.383Z,3.37
2019-04-20T16:31:07.011Z,8.27
2019-04-20T16:33:34.526Z,3.43
2019-04-20T16:36:03.049Z,5.33
2019-04-20T16:38:31.387Z,6.70
2019-04-20T16:41:00.023Z,5.17
2019-04-20T16:43:32.663Z,3.63
2019-04-20T16:45:59.271Z,3.93
2019-04-20T16:48:28.297Z,4.10
2019-04-20T16:50:56.540Z,4.75
2019-04-20T16:53:24.806Z,3.40
2019-04-20T16:55:53.065Z,4.30
2019-04-20T16:58:21.737Z,3.60
2019-04-20T17:00:50.119Z,3.87
2019-04-20T17:03:19.553Z,4.60
2019-04-20T17:05:50.991Z,4.73
2019-04-20T17:08:18.742Z,4.30
2019-04-20T17:10:48.716Z,4.63
2019-04-20T17:13:28.413Z,4.80
2019-04-20T17:15:47.870Z,3.70
2019-04-20T17:18:16.203Z,4.50
2019-04-20T17:20:44.455Z,4.13
2019-04-20T17:23:13.105Z,3.90
2019-04-20T17:25:41.943Z,3.97
2019-04-20T17:28:26.857Z,5.27
2019-04-20T17:30:56.972Z,13.15
2019-04-20T17:33:36.297Z,11.63
2019-04-20T17:36:09.996Z,11.03
2019-04-20T17:38:37.630Z,10.73
2019-04-20T17:41:16.707Z,12.60
2019-04-20T17:43:49.321Z,13.45
2019-04-20T17:46:10.157Z,13.20
2019-04-20T17:48:43.209Z,10.03
2019-04-20T17:51:25.422Z,10.27
2019-04-20T17:53:52.769Z,10.77
2019-04-20T17:56:17.344Z,12.90
2019-04-20T17:58:46.120Z,16.13
2019-04-20T18:01:47.825Z,16.40
2019-04-20T18:04:35.431Z,15.03
2019-04-20T18:06:47.784Z,12.68
2019-04-20T18:09:33.268Z,16.47
2019-04-20T18:11:43.766Z,11.23
2019-04-20T18:14:24.156Z,9.70
2019-04-20T18:17:05.829Z,10.10
2019-04-20T18:19:19.376Z,14.85
2019-04-20T18:21:45.616Z,10.55
2019-04-20T18:24:31.318Z,9.18
2019-04-20T18:26:59.636Z,10.80
2019-04-20T18:29:32.847Z,9.37
2019-04-20T18:31:51.478Z,8.77
2019-04-20T18:34:25.257Z,9.70
2019-04-20T18:36:52.741Z,8.00
2019-04-20T18:39:29.085Z,8.83
2019-04-20T18:41:57.198Z,8.50
2019-04-20T18:44:27.676Z,8.70
2019-04-20T18:47:12.517Z,7.90
2019-04-20T18:49:37.524Z,7.53
2019-04-20T18:51:51.707Z,6.90
2019-04-20T18:54:23.965Z,6.97
2019-04-20T18:56:51.280Z,7.27
2019-04-20T18:59:23.429Z,7.10
2019-04-20T19:01:50.927Z,8.08
2019-04-20T19:04:19.726Z,7.90
2019-04-20T19:06:48.059Z,8.10
2019-04-20T19:09:21.578Z,7.90
2019-04-20T19:11:55.870Z,8.10
2019-04-20T19:14:33.526Z,14.75
2019-04-20T19:17:08.872Z,8.97
2019-04-20T19:19:34.259Z,7.55
2019-04-20T19:21:58.390Z,9.03
2019-04-20T19:24:30.895Z,11.43
2019-04-20T19:27:01.686Z,10.08
2019-04-20T19:29:34.547Z,12.60
2019-04-20T19:32:18.258Z,9.80
2019-04-20T19:34:41.794Z,10.60
2019-04-20T19:37:13.347Z,9.40
2019-04-20T19:39:43.713Z,10.53
2019-04-20T19:42:13.080Z,12.43
2019-04-20T19:44:42.345Z,11.47
2019-04-20T19:47:18.475Z,11.35
2019-04-20T19:49:37.026Z,12.23
2019-04-20T19:52:28.238Z,12.10
2019-04-20T19:54:48.451Z,13.10
2019-04-20T19:57:10.425Z,13.10
2019-04-20T19:59:35.691Z,13.00
2019-04-20T20:01:58.012Z,11.37
2019-04-20T20:04:26.299Z,11.60
2019-04-20T20:07:01.846Z,12.20
2019-04-20T20:09:25.826Z,12.07
2019-04-20T20:11:56.125Z,12.40
2019-04-20T20:14:30.605Z,11.77
2019-04-20T20:17:08.944Z,11.53
2019-04-20T20:19:38.091Z,12.53
2019-04-20T20:22:05.574Z,11.10
2019-04-20T20:24:25.180Z,11.97
2019-04-20T20:27:00.473Z,12.20
2019-04-20T20:29:30.521Z,13.03
2019-04-20T20:32:06.132Z,12.93
2019-04-20T20:34:30.969Z,13.00
2019-04-20T20:36:59.824Z,13.90
2019-04-20T20:39:27.679Z,12.90
2019-04-20T20:42:06.558Z,14.58
2019-04-20T20:44:33.135Z,16.13
2019-04-20T20:47:00.812Z,15.23
2019-04-20T20:49:48.806Z,16.10
2019-04-20T20:52:14.580Z,15.20
2019-04-20T20:54:36.418Z,15.53
2019-04-20T20:57:02.904Z,13.93
2019-04-20T20:59:35.838Z,17.07
2019-04-20T21:02:04.388Z,15.90
2019-04-20T21:04:23.771Z,17.37
2019-04-20T21:06:52.819Z,15.83
2019-04-20T21:09:24.168Z,16.00
2019-04-20T21:12:00.596Z,17.47
2019-04-20T21:14:27.182Z,15.30
2019-04-20T21:17:01.297Z,15.40
2019-04-20T21:19:41.865Z,15.10
2019-04-20T21:21:59.840Z,15.25
2019-04-20T21:24:23.692Z,16.90
2019-04-20T21:26:53.824Z,15.77
2019-04-20T21:29:31.763Z,14.43
2019-04-20T21:31:59.904Z,15.07
2019-04-20T21:34:23.651Z,14.17
2019-04-20T21:36:56.210Z,15.73
2019-04-20T21:39:34.589Z,13.90
2019-04-20T21:41:57.228Z,14.68
2019-04-20T21:44:28.712Z,14.57
2019-04-20T21:46:54.643Z,15.57
2019-04-20T21:49:35.889Z,14.93
2019-04-20T21:51:58.638Z,14.83
2019-04-20T21:54:22.335Z,16.90
2019-04-20T21:56:56.102Z,15.88
2019-04-20T21:59:28.039Z,17.65
2019-04-20T22:02:01.319Z,17.75
2019-04-20T22:04:22.901Z,16.43
2019-04-20T22:06:52.026Z,17.93
2019-04-20T22:09:20.485Z,17.87
2019-04-20T22:11:49.778Z,16.17
2019-04-20T22:14:22.471Z,18.37
2019-04-20T22:16:51.668Z,17.70
2019-04-20T22:19:30.672Z,15.95
2019-04-20T22:22:00.562Z,17.15
2019-04-20T22:24:34.297Z,16.50
2019-04-20T22:27:02.638Z,17.83
2019-04-20T22:29:18.395Z,18.70
2019-04-20T22:31:56.502Z,19.15
2019-04-20T22:34:20.966Z,16.17
2019-04-20T22:36:48.667Z,16.73
2019-04-20T22:39:39.654Z,15.60
2019-04-20T22:42:08.483Z,16.30
2019-04-20T22:44:34.828Z,18.20
2019-04-20T22:47:05.462Z,18.43
2019-04-20T22:49:48.183Z,17.47
2019-04-20T22:52:18.513Z,19.53
2019-04-20T22:54:52.146Z,18.83
2019-04-20T22:57:12.946Z,16.40
2019-04-20T22:59:42.168Z,19.07
2019-04-20T23:02:05.632Z,17.93
2019-04-20T23:04:33.187Z,19.02
2019-04-20T23:07:03.109Z,19.32
2019-04-20T23:09:34.133Z,20.55
2019-04-20T23:12:09.125Z,20.00
2019-04-20T23:14:32.145Z,20.00
2019-04-20T23:17:00.464Z,18.77
2019-04-20T23:19:39.533Z,19.07
2019-04-20T23:22:03.500Z,20.37
2019-04-20T23:24:29.225Z,19.93
2019-04-20T23:26:57.469Z,19.23
2019-04-20T23:29:29.571Z,16.53
2019-04-20T23:32:01.357Z,20.17
2019-04-20T23:34:30.139Z,18.23
2019-04-20T23:36:56.741Z,18.03
2019-04-20T23:39:30.151Z,17.60
2019-04-20T23:42:00.384Z,19.13
2019-04-20T23:44:29.434Z,19.25
2019-04-20T23:47:06.212Z,17.63
2019-04-20T23:49:50.618Z,20.07
2019-04-20T23:52:26.993Z,20.17
2019-04-20T23:54:33.998Z,18.50
2019-04-20T23:57:01.775Z,19.80
2019-04-20T23:59:35.775Z,19.43
